Time;durP1;ratioP1;P1;durP2;ratioP2;P2;SDS_P1;SDS_P2;PMS_P1;PMS_P2;Temp;Humidity;BMP_temperature;BMP_pressure;BME280_temperature;BME280_humidity;BME280_pressure;Samples;Min_cycle;Max_cycle;Signal;HPM_P1;HPM_P2
2022/01/11 00:00:45;;;;;;;;;;;0.80;99.90;;;-0.40;100.00;101875.84;4977232;28;19931;-77
2022/01/11 00:03:17;;;;;;;;;;;0.70;99.90;;;-0.46;100.00;101872.16;4974507;28;19997;-77
2022/01/11 00:05:59;;;;;;;;;;;0.60;99.90;;;-0.68;100.00;101875.47;4958721;28;19931;-77
2022/01/11 00:08:31;;;;;;;;;;;2.70;99.90;;;-0.59;100.00;101877.59;4971331;28;19937;-77
2022/01/11 00:11:04;;;;;;;;;;;0.50;99.90;;;-0.58;100.00;101881.94;4973667;28;20327;-77
2022/01/11 00:13:40;;;;;;;;;;;1.30;99.90;;;-0.67;100.00;101887.56;4973549;28;19930;-77
2022/01/11 00:16:09;;;;;;;;;;;0.40;99.90;;;-0.80;100.00;101890.38;4975891;28;19930;-77
2022/01/11 00:18:36;;;;;;;;;;;0.50;99.90;;;-0.98;100.00;101892.97;4944499;29;19938;-77
2022/01/11 00:21:03;;;;;;;;;;;0.30;99.90;;;-1.04;100.00;101884.13;4976590;28;19930;-76
2022/01/11 00:25:57;;;;;;;;;;;0.10;99.90;;;-0.83;100.00;101896.28;4960033;28;19961;-77
2022/01/11 00:28:26;;;;;;;;;;;0.30;99.90;;;-0.98;100.00;101890.38;4959019;28;19931;-77
2022/01/11 00:31:03;;;;;;;;;;;0.30;99.90;;;-0.84;100.00;101893.66;4944002;28;20364;-77
2022/01/11 00:33:36;;;;;;;;;;;0.20;99.90;;;-0.76;100.00;101887.13;4974240;28;19926;-77
2022/01/11 00:36:03;;;;;;;;;;;0.40;99.90;;;-0.77;100.00;101896.59;4958972;28;20453;-77
2022/01/11 00:38:36;;;;;;;;;;;0.20;99.90;;;-0.92;100.00;101893.28;4943812;29;19927;-77
2022/01/11 00:41:06;;;;;;;;;;;0.30;99.90;;;-0.84;100.00;101891.94;4943087;28;19930;-78
2022/01/11 00:43:34;;;;;;;;;;;0.30;99.90;;;-0.88;100.00;101896.06;4943394;28;20030;-77
2022/01/11 00:46:02;;;;;;;;;;;3.10;99.90;;;-0.83;100.00;101887.66;4929169;28;20323;-77
2022/01/11 00:48:29;;;;;;;;;;;2.10;99.90;;;-0.73;100.00;101892.44;4960909;28;19930;-78
2022/01/11 00:50:56;;;;;;;;;;;2.10;99.90;;;-0.72;100.00;101894.19;4961549;28;20454;-78
2022/01/11 00:53:23;;;;;;;;;;;0.40;99.90;;;-0.75;100.00;101896.66;4959783;28;19931;-77
2022/01/11 00:55:51;;;;;;;;;;;0.30;99.90;;;-0.68;100.00;101900.41;4976726;28;19937;-77
2022/01/11 00:58:18;;;;;;;;;;;0.40;99.90;;;-0.50;100.00;101901.25;4946538;28;19930;-78
2022/01/11 01:00:46;;;;;;;;;;;0.30;99.90;;;-0.44;100.00;101903.25;4945062;28;20383;-78
2022/01/11 01:03:13;;;;;;;;;;;0.50;99.90;;;-0.36;100.00;101903.59;4952228;28;19962;-78
2022/01/11 01:05:41;;;;;;;;;;;0.30;99.90;;;-0.41;100.00;101905.97;4945761;28;19985;-77
2022/01/11 01:08:09;;;;;;;;;;;0.40;99.90;;;-0.34;100.00;101901.97;4930322;29;20576;-77
2022/01/11 01:10:45;;;;;;;;;;;0.50;99.90;;;-0.43;100.00;101902.44;4928423;29;19984;-77
2022/01/11 01:13:21;;;;;;;;;;;0.60;99.90;;;-0.29;100.00;101909.13;4942255;28;19970;-77
2022/01/11 01:15:54;;;;;;;;;;;0.50;99.90;;;-0.22;100.00;101910.28;4929259;29;19930;-77
2022/01/11 01:18:39;;;;;;;;;;;3.40;99.90;;;-0.11;100.00;101915.06;4917043;29;19930;-78
2022/01/11 01:21:06;;;;;;;;;;;0.70;99.90;;;-0.08;100.00;101910.91;4927960;29;19930;-77
2022/01/11 01:23:34;;;;;;;;;;;0.90;99.90;;;0.00;100.00;101913.84;4926660;29;19934;-77
2022/01/11 01:26:01;;;;;;;;;;;0.80;99.90;;;0.01;100.00;101914.72;4943497;28;19934;-77
2022/01/11 01:28:28;;;;;;;;;;;0.90;99.90;;;0.10;100.00;101913.41;4928054;28;19930;-78
2022/01/11 01:31:00;;;;;;;;;;;0.90;99.90;;;0.11;100.00;101915.19;4944061;29;20013;-77
2022/01/11 01:33:29;;;;;;;;;;;1.10;99.90;;;0.08;100.00;101929.69;4958398;28;20337;-77
2022/01/11 01:36:07;;;;;;;;;;;1.00;99.90;;;0.18;100.00;101931.00;4943892;29;19931;-77
2022/01/11 01:38:34;;;;;;;;;;;1.00;99.90;;;0.18;100.00;101929.28;4957947;28;19934;-77
2022/01/11 01:41:10;;;;;;;;;;;1.50;99.90;;;0.25;100.00;101930.44;4962532;28;19938;-76
2022/01/11 01:43:37;;;;;;;;;;;1.10;99.90;;;0.27;100.00;101929.69;4945447;28;19984;-77
2022/01/11 01:46:04;;;;;;;;;;;1.20;99.90;;;0.30;100.00;101934.09;4946366;29;19981;-77
2022/01/11 01:48:31;;;;;;;;;;;1.30;99.90;;;0.35;100.00;101937.81;4946329;28;19960;-77
2022/01/11 01:50:58;;;;;;;;;;;1.30;99.90;;;0.39;100.00;101928.44;4946458;28;20028;-77
2022/01/11 01:53:25;;;;;;;;;;;4.40;99.90;;;0.40;100.00;101927.66;4945371;29;20001;-77
2022/01/11 01:55:52;;;;;;;;;;;2.10;99.90;;;0.46;100.00;101932.19;4962303;28;19930;-77
2022/01/11 01:58:19;;;;;;;;;;;1.30;99.90;;;0.46;100.00;101940.84;4946176;28;19970;-77
2022/01/11 02:00:54;;;;;;;;;;;1.40;99.90;;;0.59;100.00;101936.19;4930172;29;20037;-77
2022/01/11 02:03:29;;;;;;;;;;;1.20;99.90;;;0.61;100.00;101939.72;4945356;29;20503;-77
2022/01/11 02:05:57;;;;;;;;;;;3.60;99.90;;;0.59;100.00;101928.44;4946469;29;19936;-77
2022/01/11 02:08:26;;;;;;;;;;;1.30;99.90;;;0.65;100.00;101937.34;4947159;29;19934;-78
2022/01/11 02:10:54;;;;;;;;;;;1.50;99.90;;;0.62;100.00;101931.13;4947071;29;20021;-77
2022/01/11 02:13:21;;;;;;;;;;;1.50;99.90;;;0.67;100.00;101934.78;4961536;28;19930;-78
2022/01/11 02:15:50;;;;;;;;;;;2.70;99.90;;;0.70;100.00;101932.31;4931224;29;19930;-77
2022/01/11 02:18:22;;;;;;;;;;;3.80;99.90;;;0.67;100.00;101933.09;4962666;28;19930;-78
2022/01/11 02:20:59;;;;;;;;;;;4.40;99.90;;;0.64;100.00;101937.25;4960635;28;20017;-77
2022/01/11 02:23:31;;;;;;;;;;;1.40;99.90;;;0.62;100.00;101946.69;4944589;28;19930;-77
2022/01/11 02:25:59;;;;;;;;;;;2.30;99.90;;;0.72;100.00;101941.06;4945859;28;19930;-77
2022/01/11 02:28:28;;;;;;;;;;;1.50;99.90;;;0.77;100.00;101946.44;4945642;29;20001;-77
2022/01/11 02:30:57;;;;;;;;;;;4.70;99.90;;;0.75;100.00;101941.19;4929949;29;19936;-77
2022/01/11 02:33:32;;;;;;;;;;;1.50;99.90;;;0.76;100.00;101947.25;4944667;28;19934;-77
2022/01/11 02:36:21;;;;;;;;;;;1.60;99.90;;;0.73;100.00;101940.25;4947315;29;19976;-77
2022/01/11 02:38:52;;;;;;;;;;;1.50;99.90;;;0.75;100.00;101943.78;4945382;28;19935;-77
2022/01/11 02:41:21;;;;;;;;;;;1.70;99.90;;;0.80;100.00;101937.09;4961141;28;19998;-77
2022/01/11 02:43:49;;;;;;;;;;;3.20;99.90;;;0.81;100.00;101945.75;4959947;28;19930;-77
2022/01/11 02:46:19;;;;;;;;;;;3.80;99.90;;;0.78;100.00;101949.09;4945648;28;19988;-77
2022/01/11 02:48:51;;;;;;;;;;;1.50;99.90;;;0.84;100.00;101941.56;4961377;28;19930;-77
2022/01/11 02:51:21;;;;;;;;;;;3.60;99.90;;;0.89;100.00;101943.47;4944791;28;19934;-77
2022/01/11 02:53:53;;;;;;;;;;;1.50;99.90;;;0.92;100.00;101941.88;4944773;28;19937;-77
2022/01/11 02:56:21;;;;;;;;;;;1.70;99.90;;;0.95;100.00;101939.44;4932173;29;20646;-77
2022/01/11 02:58:48;;;;;;;;;;;1.70;99.90;;;0.95;100.00;101946.31;4935730;29;20582;-77
2022/01/11 03:01:15;;;;;;;;;;;3.60;99.90;;;0.92;100.00;101947.06;4946997;28;19927;-77
2022/01/11 03:03:43;;;;;;;;;;;1.80;99.90;;;0.93;100.00;101947.97;4946358;28;20386;-77
2022/01/11 03:06:14;;;;;;;;;;;1.80;99.90;;;0.95;100.00;101943.72;4930560;29;20337;-77
2022/01/11 03:08:46;;;;;;;;;;;2.50;99.90;;;0.99;100.00;101941.31;4938289;28;19931;-78
2022/01/11 03:11:19;;;;;;;;;;;1.80;99.90;;;1.00;100.00;101947.38;4931280;29;19972;-78
2022/01/11 03:13:48;;;;;;;;;;;1.90;99.90;;;1.03;100.00;101950.13;4930966;29;20357;-77
2022/01/11 03:16:16;;;;;;;;;;;4.40;99.90;;;1.11;100.00;101948.69;4931169;29;19934;-77
2022/01/11 03:18:45;;;;;;;;;;;1.90;99.90;;;1.11;100.00;101948.69;4931071;28;20424;-78
2022/01/11 03:21:12;;;;;;;;;;;1.80;99.90;;;1.13;100.00;101956.56;4930732;29;19935;-77
2022/01/11 03:23:39;;;;;;;;;;;1.70;99.90;;;1.11;100.00;101953.91;4945357;28;19937;-78
2022/01/11 03:26:07;;;;;;;;;;;2.00;99.90;;;1.07;100.00;101952.00;4929948;29;20017;-77
2022/01/11 03:28:36;;;;;;;;;;;2.00;99.90;;;1.06;100.00;101946.75;4929777;29;20021;-77
2022/01/11 03:31:03;;;;;;;;;;;1.70;99.90;;;1.07;100.00;101957.19;4946098;29;19970;-77
2022/01/11 03:33:41;;;;;;;;;;;2.00;99.90;;;1.05;100.00;101956.25;4944771;29;19927;-77
2022/01/11 03:36:08;;;;;;;;;;;1.80;99.90;;;1.07;100.00;101954.59;4930622;29;19931;-77
2022/01/11 03:38:36;;;;;;;;;;;1.80;99.90;;;1.05;100.00;101953.66;4944675;28;19950;-76
2022/01/11 03:41:09;;;;;;;;;;;3.20;99.90;;;1.01;100.00;101961.25;4930028;29;19934;-77
2022/01/11 03:43:57;;;;;;;;;;;4.60;99.90;;;1.00;100.00;101957.75;4931435;29;20417;-77
2022/01/11 03:46:24;;;;;;;;;;;4.80;99.90;;;1.02;100.00;101957.81;4930012;29;19938;-77
2022/01/11 03:48:51;;;;;;;;;;;4.00;99.90;;;0.98;100.00;101960.28;4929697;29;19930;-77
2022/01/11 03:51:17;;;;;;;;;;;1.90;99.90;;;1.00;100.00;101957.75;4946158;28;20395;-77
2022/01/11 03:54:05;;;;;;;;;;;1.90;99.90;;;1.03;100.00;101968.25;4928935;29;19961;-77
2022/01/11 03:56:35;;;;;;;;;;;1.90;99.90;;;1.02;100.00;101965.59;4931473;29;19934;-77
2022/01/11 03:59:11;;;;;;;;;;;2.00;99.90;;;1.01;100.00;101975.06;4930709;29;19972;-77
2022/01/11 04:01:39;;;;;;;;;;;1.80;99.90;;;1.05;100.00;101965.72;4929646;29;19965;-77
2022/01/11 04:04:09;;;;;;;;;;;1.80;99.90;;;1.05;100.00;101961.44;4927519;29;19931;-77
2022/01/11 04:06:37;;;;;;;;;;;1.90;99.90;;;1.10;100.00;101972.00;4944870;29;19940;-77
2022/01/11 04:09:06;;;;;;;;;;;4.70;99.90;;;1.07;100.00;101975.34;4928768;29;19930;-77
2022/01/11 04:11:34;;;;;;;;;;;1.70;99.90;;;1.11;100.00;101973.75;4929470;29;19931;-77
2022/01/11 04:14:01;;;;;;;;;;;3.60;99.90;;;1.13;100.00;101978.16;4943371;28;20009;-77
2022/01/11 04:16:28;;;;;;;;;;;1.90;99.90;;;1.15;100.00;101969.56;4929119;29;19973;-77
2022/01/11 04:18:58;;;;;;;;;;;3.00;99.90;;;1.21;100.00;101970.69;4929324;29;19931;-77
2022/01/11 04:21:25;;;;;;;;;;;1.80;99.90;;;1.33;100.00;101969.44;4930194;29;19935;-77
2022/01/11 04:23:55;;;;;;;;;;;2.10;99.90;;;1.36;100.00;101970.44;4929452;29;19934;-78
2022/01/11 04:26:24;;;;;;;;;;;2.10;99.90;;;1.41;100.00;101971.50;4946150;28;19935;-78
2022/01/11 04:28:52;;;;;;;;;;;2.20;99.90;;;1.42;100.00;101972.41;4929407;29;19930;-77
2022/01/11 04:31:19;;;;;;;;;;;4.20;99.90;;;1.41;100.00;101978.41;4929112;29;19931;-77
2022/01/11 04:33:46;;;;;;;;;;;2.20;99.90;;;1.45;100.00;101987.19;4942863;28;19961;-77
2022/01/11 04:36:14;;;;;;;;;;;2.00;99.90;;;1.42;100.00;101995.75;4926755;29;19930;-77
2022/01/11 04:38:41;;;;;;;;;;;2.00;99.90;;;1.39;100.00;101999.09;4942068;28;20017;-77
2022/01/11 04:41:08;;;;;;;;;;;2.10;99.90;;;1.35;100.00;101994.63;4944275;28;20006;-77
2022/01/11 04:43:41;;;;;;;;;;;5.50;99.90;;;1.37;100.00;102002.44;4943232;29;20017;-77
2022/01/11 04:46:08;;;;;;;;;;;5.10;99.90;;;1.37;100.00;102005.03;4928691;29;20056;-77
2022/01/11 04:48:36;;;;;;;;;;;2.20;99.90;;;1.40;100.00;102006.06;4927889;28;20573;-77
2022/01/11 04:51:05;;;;;;;;;;;2.10;99.90;;;1.46;100.00;102009.69;4943904;29;19931;-77
2022/01/11 04:53:32;;;;;;;;;;;4.40;99.90;;;1.49;100.00;102005.53;4926710;28;19931;-77
2022/01/11 04:55:59;;;;;;;;;;;2.20;99.90;;;1.55;100.00;102010.94;4912531;29;20029;-77
2022/01/11 04:58:27;;;;;;;;;;;4.60;99.90;;;1.54;100.00;102016.09;4928286;28;20019;-77
2022/01/11 05:00:54;;;;;;;;;;;2.10;99.90;;;1.51;100.00;102013.38;4927536;28;19937;-76
2022/01/11 05:03:22;;;;;;;;;;;2.20;99.90;;;1.52;100.00;102016.03;4946183;28;20597;-77
2022/01/11 05:05:54;;;;;;;;;;;2.30;99.90;;;1.57;100.00;102003.25;4947696;28;19931;-77
2022/01/11 05:08:21;;;;;;;;;;;4.10;99.90;;;1.66;100.00;102002.72;4931263;28;19930;-78
2022/01/11 05:10:48;;;;;;;;;;;3.60;99.90;;;1.71;100.00;102001.16;4962951;28;19930;-77
2022/01/11 05:13:18;;;;;;;;;;;5.70;99.90;;;1.71;100.00;102019.34;4947532;28;19934;-77
2022/01/11 05:15:45;;;;;;;;;;;2.40;99.90;;;1.70;100.00;102017.56;4960262;28;20024;-77
2022/01/11 05:18:13;;;;;;;;;;;2.80;99.90;;;1.69;100.00;102026.19;4932945;29;19938;-76
2022/01/11 05:20:41;;;;;;;;;;;5.20;99.90;;;1.73;100.00;102014.22;4953572;29;20296;-77
2022/01/11 05:23:10;;;;;;;;;;;5.50;99.90;;;1.67;100.00;102020.94;4932376;29;19937;-78
2022/01/11 05:25:37;;;;;;;;;;;2.40;99.90;;;1.72;100.00;102026.34;4932516;29;19935;-77
2022/01/11 05:28:04;;;;;;;;;;;2.60;99.90;;;1.66;100.00;102026.06;4931928;29;20355;-78
2022/01/11 05:30:31;;;;;;;;;;;2.50;99.90;;;1.74;100.00;102016.00;4932208;28;19980;-77
2022/01/11 05:32:59;;;;;;;;;;;2.50;99.90;;;1.76;100.00;102025.63;4933202;29;19957;-78
2022/01/11 05:35:26;;;;;;;;;;;2.50;99.90;;;1.72;100.00;102023.72;4917849;29;19930;-78
2022/01/11 05:37:53;;;;;;;;;;;2.40;99.90;;;1.72;100.00;102025.44;4943105;28;20696;-78
2022/01/11 05:40:21;;;;;;;;;;;3.00;99.90;;;1.74;100.00;102026.38;4999232;28;19926;-78
2022/01/11 05:42:52;;;;;;;;;;;2.40;99.90;;;1.74;100.00;102034.16;4931511;29;20304;-79
2022/01/11 05:45:24;;;;;;;;;;;2.60;99.90;;;1.73;100.00;102034.97;4914823;29;19927;-78
2022/01/11 05:47:52;;;;;;;;;;;2.90;99.90;;;1.74;100.00;102036.75;4932832;29;19930;-78
2022/01/11 05:50:21;;;;;;;;;;;2.50;99.90;;;1.79;100.00;102033.50;4933769;29;19949;-79
2022/01/11 05:52:49;;;;;;;;;;;2.50;99.90;;;1.81;100.00;102046.56;4933342;28;19941;-78
2022/01/11 05:55:17;;;;;;;;;;;2.40;99.90;;;1.80;100.00;102035.28;4949197;28;19942;-78
2022/01/11 05:57:44;;;;;;;;;;;2.70;99.90;;;1.82;100.00;102045.75;4965196;28;19937;-78
2022/01/11 06:00:15;;;;;;;;;;;2.30;99.90;;;1.84;100.00;102038.88;4943662;28;19934;-77
2022/01/11 06:02:48;;;;;;;;;;;2.70;99.90;;;1.84;100.00;102052.75;4948203;28;20020;-79
2022/01/11 06:05:26;;;;;;;;;;;2.40;99.90;;;1.88;100.00;102061.53;4933158;29;19935;-78
2022/01/11 06:07:53;;;;;;;;;;;3.80;99.90;;;1.88;100.00;102048.56;4931731;28;19953;-78
2022/01/11 06:10:20;;;;;;;;;;;5.50;99.90;;;1.88;100.00;102055.47;4931601;29;20315;-78
2022/01/11 06:12:48;;;;;;;;;;;4.60;99.90;;;1.88;100.00;102048.56;4931253;29;19937;-77
2022/01/11 06:15:15;;;;;;;;;;;5.60;99.90;;;1.91;100.00;102048.66;4931233;29;19933;-78
2022/01/11 06:17:42;;;;;;;;;;;2.50;99.90;;;1.90;100.00;102052.09;4931582;29;19934;-77
2022/01/11 06:20:11;;;;;;;;;;;2.90;99.90;;;1.88;100.00;102063.25;4931936;29;19961;-78
2022/01/11 06:22:39;;;;;;;;;;;2.60;99.90;;;1.88;100.00;102058.06;4932074;29;19930;-77
2022/01/11 06:25:06;;;;;;;;;;;6.00;99.90;;;1.87;100.00;102056.28;4931752;28;19938;-78
2022/01/11 06:27:39;;;;;;;;;;;2.90;99.90;;;1.88;100.00;102066.72;4932309;29;19930;-78
2022/01/11 06:30:15;;;;;;;;;;;2.40;99.90;;;1.81;100.00;102056.94;4950973;29;19937;-79
2022/01/11 06:32:43;;;;;;;;;;;3.90;99.90;;;1.87;100.00;102058.88;4934721;29;19938;-78
2022/01/11 06:35:12;;;;;;;;;;;2.40;99.90;;;1.83;100.00;102066.53;4935094;29;19927;-79
2022/01/11 06:37:40;;;;;;;;;;;2.50;99.90;;;1.88;100.00;102071.06;4934770;29;20428;-80
2022/01/11 06:40:08;;;;;;;;;;;2.60;99.90;;;1.83;100.00;102082.13;4934561;29;20378;-80
2022/01/11 06:42:36;;;;;;;;;;;2.50;99.90;;;1.85;100.00;102074.41;4934109;29;19957;-79
2022/01/11 06:45:05;;;;;;;;;;;4.40;99.90;;;1.83;100.00;102081.25;4934566;29;19930;-80
2022/01/11 06:47:33;;;;;;;;;;;2.50;99.90;;;1.84;100.00;102081.28;4919932;29;19930;-78
2022/01/11 06:50:00;;;;;;;;;;;4.90;99.90;;;1.83;100.00;102082.13;4932848;29;20021;-78
2022/01/11 06:52:33;;;;;;;;;;;3.30;99.90;;;1.89;100.00;102097.06;4948531;29;19946;-78
2022/01/11 06:54:59;;;;;;;;;;;2.50;99.90;;;1.86;100.00;102090.84;4933004;29;19996;-78
2022/01/11 06:57:28;;;;;;;;;;;4.20;99.90;;;1.87;100.00;102087.41;4928751;29;19931;-78
2022/01/11 06:59:55;;;;;;;;;;;3.70;99.90;;;1.87;100.00;102096.13;4928638;29;19933;-78
2022/01/11 07:02:25;;;;;;;;;;;4.40;99.90;;;1.89;100.00;102097.06;4933394;29;20707;-78
2022/01/11 07:05:11;;;;;;;;;;;2.40;99.90;;;1.89;100.00;102097.06;4934076;29;19931;-78
2022/01/11 07:07:38;;;;;;;;;;;2.70;99.90;;;1.88;100.00;102100.47;4948610;28;20590;-78
2022/01/11 07:10:05;;;;;;;;;;;2.70;99.90;;;1.92;100.00;102115.34;4930120;29;20426;-79
2022/01/11 07:12:32;;;;;;;;;;;2.80;99.90;;;1.91;100.00;102110.09;4944779;29;19946;-78
2022/01/11 07:14:59;;;;;;;;;;;2.60;99.90;;;1.95;100.00;102115.50;4917570;29;20506;-78
2022/01/11 07:17:27;;;;;;;;;;;3.60;99.90;;;1.93;100.00;102117.13;4949690;28;19934;-79
2022/01/11 07:19:56;;;;;;;;;;;3.30;99.90;;;1.94;100.00;102118.00;4933667;29;19960;-79
2022/01/11 07:22:23;;;;;;;;;;;2.50;99.90;;;1.93;100.00;102121.44;4915121;29;19931;-78
2022/01/11 07:24:50;;;;;;;;;;;4.50;99.90;;;1.87;100.00;102124.66;4914016;29;19941;-79
2022/01/11 07:27:19;;;;;;;;;;;5.70;99.90;;;1.85;100.00;102131.50;4914357;29;19930;-77
2022/01/11 07:29:46;;;;;;;;;;;3.30;99.90;;;1.90;100.00;102129.97;4930211;29;20736;-77
2022/01/11 07:32:14;;;;;;;;;;;2.70;99.90;;;1.95;100.00;102132.75;4914060;29;19938;-77
2022/01/11 07:34:42;;;;;;;;;;;2.80;99.90;;;2.00;100.00;102132.94;4913243;29;19931;-78
2022/01/11 07:37:10;;;;;;;;;;;2.80;99.90;;;2.06;100.00;102140.97;4913113;29;19937;-78
2022/01/11 07:39:40;;;;;;;;;;;3.00;99.90;;;2.09;100.00;102133.28;4919598;28;19926;-79
2022/01/11 07:42:08;;;;;;;;;;;4.70;99.90;;;2.11;100.00;102139.47;4934787;28;19964;-78
2022/01/11 07:44:51;;;;;;;;;;;2.90;99.90;;;2.10;100.00;102141.16;4941105;28;20374;-77
2022/01/11 07:47:19;;;;;;;;;;;2.70;99.90;;;2.11;100.00;102149.84;4952784;28;20455;-78
2022/01/11 07:49:47;;;;;;;;;;;3.20;99.90;;;2.12;100.00;102154.22;4949688;28;19931;-78
2022/01/11 07:52:16;;;;;;;;;;;2.80;99.90;;;2.13;100.00;102148.19;4933845;28;19930;-78
2022/01/11 07:54:44;;;;;;;;;;;4.80;99.90;;;2.14;100.00;102155.16;4933403;29;19930;-78
2022/01/11 07:57:14;;;;;;;;;;;5.80;99.90;;;2.15;100.00;102153.44;4933404;29;19930;-79
2022/01/11 07:59:41;;;;;;;;;;;4.80;99.90;;;2.19;100.00;102148.44;4931746;29;19938;-79
2022/01/11 08:02:26;;;;;;;;;;;2.70;99.90;;;2.22;100.00;102158.94;4933546;29;19931;-78
2022/01/11 08:04:54;;;;;;;;;;;4.20;99.90;;;2.25;100.00;102160.78;4913291;29;19985;-79
2022/01/11 08:07:21;;;;;;;;;;;6.10;99.90;;;2.26;100.00;102160.84;4906969;29;19973;-79
2022/01/11 08:10:00;;;;;;;;;;;3.50;99.90;;;2.24;100.00;102154.69;4898131;29;19931;-78
2022/01/11 08:12:28;;;;;;;;;;;4.80;99.90;;;2.24;100.00;102154.69;4924112;28;20014;-78
2022/01/11 08:14:55;;;;;;;;;;;3.20;99.90;;;2.27;100.00;102153.91;4964326;28;20349;-78
2022/01/11 08:17:22;;;;;;;;;;;6.80;99.90;;;2.36;100.00;102166.38;4964626;28;19949;-78
2022/01/11 08:19:50;;;;;;;;;;;2.90;99.90;;;2.35;100.00;102156.81;4964455;28;19930;-78
2022/01/11 08:22:18;;;;;;;;;;;2.70;99.90;;;2.34;100.00;102168.94;4963729;28;20101;-79
2022/01/11 08:24:52;;;;;;;;;;;3.10;99.90;;;2.36;100.00;102168.97;4947838;28;19934;-78
2022/01/11 08:27:19;;;;;;;;;;;3.10;99.90;;;2.37;100.00;102171.66;4963485;28;19942;-78
2022/01/11 08:29:51;;;;;;;;;;;5.20;99.90;;;2.37;100.00;102178.53;4947704;28;19954;-79
2022/01/11 08:32:18;;;;;;;;;;;3.10;99.90;;;2.45;100.00;102177.16;4947365;28;20286;-79
2022/01/11 08:34:46;;;;;;;;;;;1.60;99.90;;;2.45;100.00;102181.44;4947641;28;19930;-79
2022/01/11 08:37:14;;;;;;;;;;;3.20;99.90;;;2.49;100.00;102180.72;4948183;28;19957;-78
2022/01/11 08:39:43;;;;;;;;;;;3.30;99.90;;;2.51;100.00;102181.69;4963953;28;19983;-79
2022/01/11 08:42:14;;;;;;;;;;;3.70;99.90;;;2.55;100.00;102188.78;4962671;28;19937;-79
2022/01/11 08:44:49;;;;;;;;;;;3.40;99.90;;;2.53;100.00;102180.91;4946579;28;19937;-78
2022/01/11 08:47:20;;;;;;;;;;;3.90;99.90;;;2.57;100.00;102178.41;4961541;28;20041;-79
2022/01/11 08:49:48;;;;;;;;;;;6.50;99.90;;;2.60;100.00;102183.75;4964601;28;19930;-78
2022/01/11 08:52:16;;;;;;;;;;;4.00;99.90;;;2.65;100.00;102174.41;4966945;28;19935;-78
2022/01/11 08:54:43;;;;;;;;;;;3.40;99.90;;;2.69;100.00;102172.00;4936796;29;20307;-78
2022/01/11 08:57:10;;;;;;;;;;;6.10;99.90;;;2.76;100.00;102173.09;4932688;29;19930;-80
2022/01/11 08:59:38;;;;;;;;;;;6.00;99.90;;;2.80;100.00;102174.09;4948229;29;19937;-79
2022/01/11 09:02:08;;;;;;;;;;;3.50;99.90;;;2.88;100.00;102174.38;4932675;29;19965;-79
2022/01/11 09:04:37;;;;;;;;;;;4.70;99.90;;;2.89;100.00;102176.13;4932470;29;19984;-79
2022/01/11 09:07:11;;;;;;;;;;;7.40;99.90;;;2.92;100.00;102174.53;4933575;29;20007;-79
2022/01/11 09:09:38;;;;;;;;;;;3.90;99.90;;;2.97;100.00;102165.22;4933507;29;19935;-79
2022/01/11 09:12:08;;;;;;;;;;;3.40;99.90;;;3.03;100.00;102171.47;4933276;28;19937;-78
2022/01/11 09:14:39;;;;;;;;;;;3.70;99.90;;;3.08;100.00;102169.91;4934264;29;19935;-79
2022/01/11 09:17:07;;;;;;;;;;;5.20;99.90;;;3.11;100.00;102181.31;4920783;29;19931;-78
2022/01/11 09:19:34;;;;;;;;;;;3.80;99.90;;;3.15;100.00;102179.72;4920787;29;19931;-80
2022/01/11 09:22:06;;;;;;;;;;;3.70;99.90;;;3.21;100.00;102185.13;4935405;29;19937;-78
2022/01/11 09:24:36;;;;;;;;;;;5.60;99.90;;;3.22;100.00;102181.69;4935703;29;20637;-78
2022/01/11 09:27:07;;;;;;;;;;;3.80;99.90;;;3.33;100.00;102187.25;4920594;28;19930;-78
2022/01/11 09:29:37;;;;;;;;;;;3.90;99.90;;;3.32;100.00;102174.22;4936226;29;20029;-78
2022/01/11 09:32:07;;;;;;;;;;;3.90;99.90;;;3.37;100.00;102178.75;4923935;29;19930;-78
2022/01/11 09:34:38;;;;;;;;;;;4.20;99.90;;;3.43;100.00;102183.25;4939522;29;20029;-78
2022/01/11 09:37:10;;;;;;;;;;;7.00;99.90;;;3.47;100.00;102184.25;4940154;28;19934;-79
2022/01/11 09:39:39;;;;;;;;;;;6.00;99.90;;;3.50;100.00;102184.34;4953542;28;19930;-78
2022/01/11 09:42:07;;;;;;;;;;;4.40;99.90;;;3.57;100.00;102191.56;4961252;28;19940;-78
2022/01/11 09:44:38;;;;;;;;;;;4.20;99.90;;;3.65;100.00;102200.50;4944911;28;20030;-78
2022/01/11 09:47:09;;;;;;;;;;;4.60;99.90;;;3.62;100.00;102195.19;4944809;28;19930;-78
2022/01/11 09:49:36;;;;;;;;;;;4.30;99.90;;;3.68;100.00;102199.72;4957860;28;19930;-78
2022/01/11 09:52:07;;;;;;;;;;;5.40;99.90;;;3.79;100.00;102201.00;4974338;28;19937;-77
2022/01/11 09:54:37;;;;;;;;;;;7.00;99.90;;;3.80;100.00;102200.16;4957386;28;19930;-78
2022/01/11 09:57:07;;;;;;;;;;;4.30;99.90;;;3.83;100.00;102196.78;4937975;28;19931;-78
2022/01/11 09:59:34;;;;;;;;;;;5.80;99.90;;;3.91;100.00;102200.50;4951498;28;19953;-78
2022/01/11 10:02:20;;;;;;;;;;;4.80;99.90;;;3.97;100.00;102202.44;4965353;28;19938;-77
2022/01/11 10:05:01;;;;;;;;;;;4.90;99.90;;;4.04;100.00;102198.31;4936271;28;19961;-77
2022/01/11 10:07:42;;;;;;;;;;;5.90;99.90;;;4.13;100.00;102203.78;4936152;29;19930;-78
2022/01/11 10:10:19;;;;;;;;;;;6.60;99.90;;;4.11;100.00;102201.16;4949101;28;19934;-78
2022/01/11 10:12:58;;;;;;;;;;;4.70;99.90;;;4.22;100.00;102200.63;4948375;28;20403;-78
2022/01/11 10:15:29;;;;;;;;;;;4.50;99.90;;;4.24;100.00;102207.63;4948402;28;19931;-78
2022/01/11 10:18:06;;;;;;;;;;;6.40;99.90;;;4.28;100.00;102213.84;4963976;28;19926;-78
2022/01/11 10:20:35;;;;;;;;;;;6.40;99.90;;;4.32;100.00;102205.28;4947803;28;19930;-78
2022/01/11 10:23:13;;;;;;;;;;;7.30;99.90;;;4.34;100.00;102205.34;4947919;28;19931;-78
2022/01/11 10:25:48;;;;;;;;;;;4.70;99.90;;;4.39;100.00;102207.25;4933153;28;19934;-77
2022/01/11 10:28:33;;;;;;;;;;;5.00;99.90;;;4.46;100.00;102208.34;4947420;28;20018;-77
2022/01/11 10:31:00;;;;;;;;;;;4.80;99.90;;;4.46;100.00;102202.22;4914750;29;20422;-78
2022/01/11 10:33:29;;;;;;;;;;;5.10;99.90;;;4.54;100.00;102206.81;4941491;28;20453;-78
2022/01/11 10:35:59;;;;;;;;;;;6.10;99.90;;;4.54;100.00;102203.34;4920688;29;19994;-76
2022/01/11 10:38:37;;;;;;;;;;;7.20;99.90;;;4.65;100.00;102204.53;4959008;28;19914;-78
2022/01/11 10:41:44;;;;;;;;;;;5.10;99.90;;;4.70;100.00;102202.06;4944524;28;19930;-80
2022/01/11 10:44:43;;;;;;;;;;;5.10;99.90;;;4.80;100.00;102198.00;4951330;28;19977;-80
2022/01/11 10:47:22;;;;;;;;;;;5.10;99.90;;;4.80;100.00;102198.91;4939240;29;19953;-78
2022/01/11 10:49:58;;;;;;;;;;;5.40;99.90;;;4.84;100.00;102194.69;4943041;28;19927;-77
2022/01/11 10:52:34;;;;;;;;;;;5.10;99.90;;;4.90;100.00;102201.78;4931904;29;19930;-76
2022/01/11 10:55:20;;;;;;;;;;;7.70;99.90;;;4.99;100.00;102196.84;4948520;29;19931;-77
2022/01/11 10:57:59;;;;;;;;;;;5.40;99.90;;;5.01;100.00;102187.31;4932366;28;20315;-77
2022/01/11 11:00:36;;;;;;;;;;;5.30;99.90;;;5.07;100.00;102202.25;4948962;28;19939;-78
2022/01/11 11:03:13;;;;;;;;;;;6.70;99.90;;;5.07;100.00;102189.22;4970345;28;19930;-79
2022/01/11 11:05:54;;;;;;;;;;;5.60;99.90;;;5.14;100.00;102198.09;4953932;28;19972;-79
2022/01/11 11:08:33;;;;;;;;;;;5.50;99.90;;;5.15;100.00;102203.38;4942339;29;19930;-79
2022/01/11 11:11:15;;;;;;;;;;;6.50;99.90;;;5.17;100.00;102200.78;4943289;29;19934;-79
2022/01/11 11:13:46;;;;;;;;;;;5.60;99.90;;;5.17;100.00;102198.19;4941858;29;19930;-78
2022/01/11 11:16:30;;;;;;;;;;;5.70;99.90;;;5.31;100.00;102201.19;4934948;29;19930;-79
2022/01/11 11:19:02;;;;;;;;;;;6.00;99.90;;;5.45;100.00;102196.34;4935786;29;19931;-79
2022/01/11 11:21:52;;;;;;;;;;;6.30;99.90;;;5.45;100.00;102197.19;4950858;28;20727;-79
2022/01/11 11:24:19;;;;;;;;;;;5.90;99.90;;;5.51;100.00;102193.88;4948165;29;20330;-79
2022/01/11 11:26:49;;;;;;;;;;;6.10;99.90;;;5.53;100.00;102203.53;4947878;29;19994;-80
2022/01/11 11:29:18;;;;;;;;;;;6.00;99.90;;;5.57;100.00;102209.72;4960817;28;19973;-80
2022/01/11 11:32:06;;;;;;;;;;;6.60;99.90;;;5.64;100.00;102209.03;4934301;29;20721;-79
2022/01/11 11:34:34;;;;;;;;;;;6.10;99.90;;;5.71;100.00;102206.59;4959789;28;20009;-80